createdAt,value
2023-05-14T00:01:08.132Z,90.40
2023-05-14T00:03:39.866Z,90.40
2023-05-14T00:06:08.959Z,90.50
2023-05-14T00:08:37.055Z,90.60
2023-05-14T00:11:05.195Z,90.70
2023-05-14T00:13:33.379Z,90.80
2023-05-14T00:16:01.459Z,90.80
2023-05-14T00:18:29.581Z,90.90
2023-05-14T00:20:59.008Z,91.00
2023-05-14T00:23:27.037Z,91.00
2023-05-14T00:25:55.100Z,91.10
2023-05-14T00:28:23.160Z,91.20
2023-05-14T00:30:51.875Z,91.30
2023-05-14T00:33:19.942Z,91.40
2023-05-14T00:35:47.975Z,91.40
2023-05-14T00:38:19.344Z,91.50
2023-05-14T00:40:51.810Z,91.60
2023-05-14T00:43:20.690Z,91.70
2023-05-14T00:45:50.901Z,91.70
2023-05-14T00:48:20.445Z,91.80
2023-05-14T00:50:49.354Z,91.90
2023-05-14T00:53:20.196Z,92.00
2023-05-14T00:55:49.631Z,92.00
2023-05-14T00:58:19.535Z,92.10
2023-05-14T01:00:47.717Z,92.20
2023-05-14T01:03:15.936Z,92.30
2023-05-14T01:05:53.853Z,92.40
2023-05-14T01:08:31.800Z,92.50
2023-05-14T01:11:07.867Z,92.60
2023-05-14T01:13:49.191Z,92.60
2023-05-14T01:16:20.220Z,92.70
2023-05-14T01:18:51.583Z,92.70
2023-05-14T01:21:35.895Z,92.80
2023-05-14T01:24:04.087Z,92.90
2023-05-14T01:26:32.447Z,93.00
2023-05-14T01:29:05.016Z,93.10
2023-05-14T01:31:34.723Z,93.10
2023-05-14T01:34:04.579Z,93.10
2023-05-14T01:36:34.988Z,93.20
2023-05-14T01:39:04.242Z,93.30
2023-05-14T01:41:33.014Z,93.60
2023-05-14T01:44:02.319Z,93.40
2023-05-14T01:46:32.902Z,93.40
2023-05-14T01:49:01.113Z,93.50
2023-05-14T01:51:29.458Z,93.80
2023-05-14T01:53:58.910Z,93.60
2023-05-14T01:56:27.021Z,93.70
2023-05-14T01:58:55.622Z,93.80
2023-05-14T02:01:26.015Z,93.80
2023-05-14T02:03:54.148Z,93.90
2023-05-14T02:06:23.155Z,94.00
2023-05-14T02:08:51.238Z,94.10
2023-05-14T02:11:21.922Z,94.10
2023-05-14T02:13:50.127Z,94.20
2023-05-14T02:16:19.180Z,94.30
2023-05-14T02:18:47.479Z,94.30
2023-05-14T02:21:15.499Z,94.40
2023-05-14T02:23:44.427Z,94.50
2023-05-14T02:26:12.768Z,94.50
2023-05-14T02:28:42.256Z,94.60
2023-05-14T02:31:10.393Z,94.70
2023-05-14T02:33:38.437Z,94.70
2023-05-14T02:36:06.761Z,94.80
2023-05-14T02:38:34.864Z,94.80
2023-05-14T02:41:02.889Z,94.80
2023-05-14T02:43:30.946Z,94.90
2023-05-14T02:46:00.364Z,94.90
2023-05-14T02:48:28.491Z,95.00
2023-05-14T02:50:56.555Z,95.00
2023-05-14T02:53:24.636Z,95.10
2023-05-14T02:55:52.637Z,95.20
2023-05-14T02:58:20.757Z,95.20
2023-05-14T03:00:56.588Z,95.30
2023-05-14T03:03:26.701Z,95.40
2023-05-14T03:05:55.174Z,95.50
2023-05-14T03:08:23.359Z,95.50
2023-05-14T03:10:51.511Z,95.60
2023-05-14T03:13:20.722Z,95.80
2023-05-14T03:15:49.061Z,95.80
2023-05-14T03:18:17.279Z,95.90
2023-05-14T03:20:48.959Z,95.90
2023-05-14T03:23:17.063Z,96.00
2023-05-14T03:25:45.287Z,96.10
2023-05-14T03:28:13.369Z,96.20
2023-05-14T03:30:41.537Z,96.20
2023-05-14T03:33:11.298Z,96.30
2023-05-14T03:35:39.314Z,96.40
2023-05-14T03:38:08.804Z,96.40
2023-05-14T03:40:36.907Z,96.50
2023-05-14T03:43:05.012Z,96.60
2023-05-14T03:45:33.301Z,96.70
2023-05-14T03:48:01.407Z,96.80
2023-05-14T03:50:31.067Z,96.80
2023-05-14T03:52:59.295Z,96.90
2023-05-14T03:55:28.755Z,97.00
2023-05-14T03:57:56.861Z,97.10
2023-05-14T04:00:25.472Z,97.10
2023-05-14T04:02:56.022Z,97.20
2023-05-14T04:05:25.698Z,97.30
2023-05-14T04:07:53.764Z,97.30
2023-05-14T04:10:22.300Z,97.40
2023-05-14T04:12:52.103Z,97.50
2023-05-14T04:15:20.932Z,97.60
2023-05-14T04:17:49.008Z,97.60
2023-05-14T04:20:17.240Z,97.70
2023-05-14T04:22:45.609Z,97.70
2023-05-14T04:25:13.636Z,97.80
2023-05-14T04:27:41.653Z,97.80
2023-05-14T04:30:12.140Z,97.90
2023-05-14T04:32:40.252Z,98.00
2023-05-14T04:35:10.085Z,98.00
2023-05-14T04:37:38.178Z,98.00
2023-05-14T04:40:08.037Z,98.10
2023-05-14T04:42:36.157Z,98.10
2023-05-14T04:45:05.207Z,98.20
2023-05-14T04:47:34.673Z,98.20
2023-05-14T04:50:03.086Z,98.30
2023-05-14T04:52:31.150Z,98.30
2023-05-14T04:54:59.245Z,98.40
2023-05-14T04:57:27.306Z,98.40
2023-05-14T04:59:55.394Z,98.50
2023-05-14T05:02:23.428Z,98.60
2023-05-14T05:04:53.010Z,98.70
2023-05-14T05:07:21.043Z,98.70
2023-05-14T05:09:49.148Z,98.70
2023-05-14T05:12:17.295Z,98.80
2023-05-14T05:14:45.305Z,99.10
2023-05-14T05:17:13.410Z,99.00
2023-05-14T05:19:44.212Z,99.00
2023-05-14T05:22:14.058Z,99.10
2023-05-14T05:24:42.085Z,99.10
2023-05-14T05:27:10.121Z,99.20
2023-05-14T05:29:38.178Z,99.30
2023-05-14T05:32:07.264Z,99.30
2023-05-14T05:34:36.144Z,99.50
2023-05-14T05:37:05.944Z,99.50
2023-05-14T05:39:35.706Z,99.60
2023-05-14T05:42:03.833Z,99.60
2023-05-14T05:44:32.044Z,99.70
2023-05-14T05:47:00.174Z,99.80
2023-05-14T05:49:28.236Z,99.90
2023-05-14T05:51:56.311Z,99.90
2023-05-14T05:54:25.049Z,99.90
2023-05-14T05:56:54.678Z,99.90
2023-05-14T05:59:22.887Z,99.90
2023-05-14T06:01:51.049Z,99.90
2023-05-14T06:04:19.147Z,99.90
2023-05-14T06:06:47.187Z,99.90
2023-05-14T06:09:16.020Z,99.90
2023-05-14T06:11:44.108Z,99.90
2023-05-14T06:14:13.521Z,99.90
2023-05-14T06:16:41.691Z,99.90
2023-05-14T06:19:10.105Z,99.90
2023-05-14T06:21:38.341Z,99.90
2023-05-14T06:24:07.080Z,99.90
2023-05-14T06:26:35.152Z,99.90
2023-05-14T06:29:03.209Z,99.90
2023-05-14T06:31:32.581Z,99.90
2023-05-14T06:34:00.614Z,99.90
2023-05-14T06:36:28.755Z,99.90
2023-05-14T06:38:56.785Z,99.90
2023-05-14T06:41:24.882Z,99.90
2023-05-14T06:43:52.931Z,99.90
2023-05-14T06:46:20.988Z,99.90
2023-05-14T06:48:50.802Z,99.90
2023-05-14T06:51:18.950Z,99.90
2023-05-14T06:53:48.771Z,99.90
2023-05-14T06:56:16.919Z,99.90
2023-05-14T06:58:45.012Z,99.90
2023-05-14T07:01:13.097Z,99.90
2023-05-14T07:03:41.172Z,99.90
2023-05-14T07:06:12.518Z,99.90
2023-05-14T07:08:41.900Z,99.90
2023-05-14T07:11:10.045Z,99.90
2023-05-14T07:13:38.107Z,99.90
2023-05-14T07:16:07.059Z,99.90
2023-05-14T07:18:35.223Z,99.90
2023-05-14T07:21:04.908Z,99.90
2023-05-14T07:23:36.188Z,99.90
2023-05-14T07:26:04.557Z,99.90
2023-05-14T07:28:32.651Z,99.90
2023-05-14T07:31:01.070Z,99.90
2023-05-14T07:33:29.110Z,99.90
2023-05-14T07:35:57.188Z,99.90
2023-05-14T07:38:25.778Z,99.90
2023-05-14T07:40:55.490Z,99.90
2023-05-14T07:43:23.564Z,99.90
2023-05-14T07:45:51.733Z,99.90
2023-05-14T07:48:19.939Z,99.90
2023-05-14T07:50:49.235Z,99.90
2023-05-14T07:53:17.523Z,99.90
2023-05-14T07:55:48.096Z,99.90
2023-05-14T07:58:17.548Z,99.90
2023-05-14T08:00:45.778Z,99.90
2023-05-14T08:03:14.100Z,99.90
2023-05-14T08:05:42.286Z,99.90
2023-05-14T08:08:10.437Z,99.90
2023-05-14T08:10:38.584Z,99.90
2023-05-14T08:13:06.694Z,99.90
2023-05-14T08:15:36.110Z,99.90
2023-05-14T08:18:04.756Z,99.90
2023-05-14T08:20:32.888Z,99.90
2023-05-14T08:23:01.610Z,99.90
2023-05-14T08:25:29.617Z,99.90
2023-05-14T08:27:59.708Z,99.90
2023-05-14T08:30:28.130Z,99.90
2023-05-14T08:32:57.882Z,99.60
2023-05-14T08:35:26.080Z,99.40
2023-05-14T08:37:54.050Z,99.40
2023-05-14T08:40:22.567Z,99.20
2023-05-14T08:42:52.577Z,99.10
2023-05-14T08:45:21.852Z,99.00
2023-05-14T08:47:51.611Z,98.90
2023-05-14T08:50:23.231Z,98.80
2023-05-14T08:52:52.636Z,98.90
2023-05-14T08:55:22.413Z,98.60
2023-05-14T08:57:50.752Z,98.50
2023-05-14T09:00:19.232Z,98.40
2023-05-14T09:02:49.251Z,98.30
2023-05-14T09:05:19.105Z,98.10
2023-05-14T09:07:48.562Z,98.00
2023-05-14T09:10:17.311Z,98.00
2023-05-14T09:12:45.487Z,97.90
2023-05-14T09:15:13.923Z,97.70
2023-05-14T09:17:42.030Z,97.50
2023-05-14T09:20:13.443Z,97.50
2023-05-14T09:22:41.692Z,97.40
2023-05-14T09:25:13.007Z,97.10
2023-05-14T09:27:41.128Z,97.00
2023-05-14T09:30:11.469Z,97.00
2023-05-14T09:32:41.216Z,96.90
2023-05-14T09:35:15.733Z,96.70
2023-05-14T09:37:44.922Z,96.70
2023-05-14T09:40:15.654Z,96.60
2023-05-14T09:42:43.900Z,96.50
2023-05-14T09:45:12.802Z,96.50
2023-05-14T09:47:41.072Z,96.50
2023-05-14T09:50:10.056Z,96.10
2023-05-14T09:52:39.486Z,95.90
2023-05-14T09:55:09.044Z,96.00
2023-05-14T09:57:38.621Z,95.90
2023-05-14T10:00:08.784Z,95.70
2023-05-14T10:02:40.519Z,95.50
2023-05-14T10:05:09.779Z,95.50
2023-05-14T10:07:41.578Z,95.50
2023-05-14T10:10:14.704Z,95.50
2023-05-14T10:12:52.679Z,95.30
2023-05-14T10:15:25.044Z,95.00
2023-05-14T10:17:59.856Z,95.00
2023-05-14T10:20:28.766Z,95.00
2023-05-14T10:22:57.830Z,95.00
2023-05-14T10:25:26.403Z,95.00
2023-05-14T10:27:56.324Z,94.90
2023-05-14T10:30:25.088Z,94.70
2023-05-14T10:33:08.138Z,94.50
2023-05-14T10:35:57.153Z,94.40
2023-05-14T10:38:28.206Z,94.30
2023-05-14T10:40:59.021Z,94.10
2023-05-14T10:43:30.779Z,94.00
2023-05-14T10:45:59.584Z,94.00
2023-05-14T10:48:27.912Z,93.80
2023-05-14T10:50:57.697Z,93.60
2023-05-14T10:53:34.432Z,93.60
2023-05-14T10:56:07.538Z,93.60
2023-05-14T10:58:39.121Z,93.50
2023-05-14T11:01:08.449Z,93.30
2023-05-14T11:03:42.373Z,93.10
2023-05-14T11:06:11.713Z,93.00
2023-05-14T11:08:41.487Z,93.00
2023-05-14T11:11:10.701Z,92.90
2023-05-14T11:13:40.694Z,92.80
2023-05-14T11:18:41.886Z,92.50
2023-05-14T11:21:10.170Z,92.50
2023-05-14T11:23:38.469Z,92.50
2023-05-14T11:26:07.196Z,92.30
2023-05-14T11:28:35.863Z,92.10
2023-05-14T11:31:05.701Z,92.10
2023-05-14T11:33:33.916Z,92.00
2023-05-14T11:36:02.083Z,92.00
2023-05-14T11:38:32.830Z,91.90
2023-05-14T11:41:01.356Z,91.60
2023-05-14T11:43:30.818Z,91.60
2023-05-14T11:45:58.914Z,91.80
2023-05-14T11:48:28.345Z,91.50
2023-05-14T11:50:56.372Z,91.30
2023-05-14T11:53:27.625Z,91.00
2023-05-14T11:55:57.777Z,90.90
2023-05-14T11:58:26.561Z,91.10
2023-05-14T12:00:56.621Z,91.50
2023-05-14T12:03:26.805Z,90.90
2023-05-14T12:06:00.664Z,90.90
2023-05-14T12:08:31.262Z,90.60
2023-05-14T12:11:01.024Z,90.50
2023-05-14T12:13:30.030Z,90.50
2023-05-14T12:16:00.244Z,90.40
2023-05-14T12:18:32.961Z,90.50
2023-05-14T12:21:07.901Z,90.60
2023-05-14T12:23:49.368Z,90.20
2023-05-14T12:26:17.598Z,89.60
2023-05-14T12:28:49.091Z,89.60
2023-05-14T12:31:17.301Z,89.50
2023-05-14T12:33:45.760Z,89.40
2023-05-14T12:38:48.393Z,89.10
2023-05-14T12:41:16.446Z,89.00
2023-05-14T12:43:45.257Z,88.50
2023-05-14T12:46:13.279Z,87.80
2023-05-14T12:48:41.298Z,87.60
2023-05-14T12:51:09.388Z,87.30
2023-05-14T12:53:39.007Z,87.10
2023-05-14T12:56:07.588Z,87.30
2023-05-14T12:58:35.936Z,87.50
2023-05-14T13:01:06.782Z,87.90
2023-05-14T13:03:37.228Z,87.90
2023-05-14T13:06:05.689Z,87.90
2023-05-14T13:08:35.983Z,88.10
2023-05-14T13:11:07.067Z,88.20
2023-05-14T13:13:35.242Z,88.00
2023-05-14T13:16:03.500Z,88.20
2023-05-14T13:18:31.606Z,88.30
2023-05-14T13:20:59.738Z,88.80
2023-05-14T13:23:27.814Z,88.10
2023-05-14T13:25:55.958Z,88.30
2023-05-14T13:28:25.373Z,88.20
2023-05-14T13:31:09.746Z,88.30
2023-05-14T13:33:39.377Z,88.00
2023-05-14T13:36:08.165Z,88.00
2023-05-14T13:38:36.407Z,88.10
2023-05-14T13:41:04.692Z,87.90
2023-05-14T13:43:35.015Z,87.60
2023-05-14T13:46:04.847Z,87.40
2023-05-14T13:48:33.447Z,87.60
2023-05-14T13:51:01.527Z,87.40
2023-05-14T13:53:30.342Z,87.20
2023-05-14T13:56:00.188Z,87.00
2023-05-14T13:58:28.585Z,86.90
2023-05-14T14:00:58.096Z,86.90
2023-05-14T14:03:26.196Z,86.80
2023-05-14T14:05:54.425Z,86.30
2023-05-14T14:08:24.249Z,86.20
2023-05-14T14:10:54.640Z,86.10
2023-05-14T14:13:23.280Z,86.00
2023-05-14T14:15:51.566Z,85.80
2023-05-14T14:18:21.217Z,85.90
2023-05-14T14:20:49.403Z,86.10
2023-05-14T14:23:17.874Z,86.70
2023-05-14T14:25:45.946Z,86.00
2023-05-14T14:28:14.159Z,85.60
2023-05-14T14:30:44.728Z,85.50
2023-05-14T14:33:12.929Z,85.80
2023-05-14T14:35:42.412Z,85.80
2023-05-14T14:38:10.507Z,85.90
2023-05-14T14:40:38.607Z,85.90
2023-05-14T14:43:06.663Z,85.80
2023-05-14T14:45:34.820Z,85.70
2023-05-14T14:48:25.937Z,85.40
2023-05-14T14:50:55.750Z,84.70
2023-05-14T14:53:24.575Z,84.80
2023-05-14T14:55:52.846Z,85.20
2023-05-14T14:58:21.958Z,84.10
2023-05-14T15:00:50.949Z,83.90
2023-05-14T15:03:19.482Z,84.10
2023-05-14T15:05:47.638Z,84.30
2023-05-14T15:08:17.245Z,84.10
2023-05-14T15:10:46.515Z,84.00
2023-05-14T15:13:14.989Z,84.00
2023-05-14T15:15:43.238Z,84.50
2023-05-14T15:18:11.669Z,85.30
2023-05-14T15:20:39.808Z,86.20
2023-05-14T15:23:08.183Z,86.70
2023-05-14T15:25:37.648Z,87.90
2023-05-14T15:28:07.705Z,89.90
2023-05-14T15:30:36.032Z,90.60
2023-05-14T15:33:05.185Z,91.50
2023-05-14T15:35:34.285Z,92.10
2023-05-14T15:38:02.383Z,92.20
2023-05-14T15:40:30.621Z,92.60
2023-05-14T15:43:00.518Z,93.10
2023-05-14T15:45:28.564Z,93.20
2023-05-14T15:47:56.717Z,93.50
2023-05-14T15:50:25.822Z,93.40
2023-05-14T15:52:54.485Z,93.40
2023-05-14T15:55:22.796Z,93.40
2023-05-14T15:57:50.922Z,93.70
2023-05-14T16:00:21.354Z,94.00
2023-05-14T16:02:49.666Z,94.20
2023-05-14T16:05:17.868Z,94.50
2023-05-14T16:07:45.958Z,94.50
2023-05-14T16:10:14.172Z,94.50
2023-05-14T16:12:42.377Z,94.80
2023-05-14T16:15:11.309Z,94.70
2023-05-14T16:17:40.921Z,95.00
2023-05-14T16:20:10.104Z,95.10
2023-05-14T16:22:39.796Z,95.10
2023-05-14T16:25:08.491Z,95.20
2023-05-14T16:27:36.615Z,95.40
2023-05-14T16:30:05.531Z,95.40
2023-05-14T16:32:33.747Z,95.50
2023-05-14T16:35:03.256Z,95.70
2023-05-14T16:37:32.364Z,95.90
2023-05-14T16:40:00.487Z,96.20
2023-05-14T16:42:28.690Z,96.40
2023-05-14T16:44:56.722Z,96.50
2023-05-14T16:47:25.042Z,96.60
2023-05-14T16:49:53.176Z,96.60
2023-05-14T16:52:22.653Z,96.60
2023-05-14T16:54:50.905Z,97.00
2023-05-14T16:57:19.507Z,97.00
2023-05-14T16:59:47.576Z,97.20
2023-05-14T17:02:15.894Z,97.00
2023-05-14T17:04:44.037Z,96.90
2023-05-14T17:07:12.566Z,96.80
2023-05-14T17:09:41.985Z,96.80
2023-05-14T17:12:13.024Z,96.70
2023-05-14T17:14:41.166Z,96.40
2023-05-14T17:17:09.166Z,96.30
2023-05-14T17:19:37.216Z,96.10
2023-05-14T17:22:07.223Z,96.00
2023-05-14T17:24:36.500Z,95.80
2023-05-14T17:27:07.249Z,95.70
2023-05-14T17:29:35.417Z,95.50
2023-05-14T17:32:03.682Z,95.30
2023-05-14T17:34:31.785Z,95.20
2023-05-14T17:37:00.803Z,95.10
2023-05-14T17:39:29.083Z,95.10
2023-05-14T17:41:57.119Z,95.00
2023-05-14T17:44:26.548Z,95.00
2023-05-14T17:46:54.715Z,94.80
2023-05-14T17:49:22.941Z,95.00
2023-05-14T17:51:50.993Z,95.30
2023-05-14T17:54:19.044Z,95.80
2023-05-14T17:56:48.069Z,96.10
2023-05-14T17:59:16.118Z,96.20
2023-05-14T18:01:45.544Z,96.30
2023-05-14T18:04:13.756Z,96.30
2023-05-14T18:06:41.774Z,96.40
2023-05-14T18:09:09.787Z,96.60
2023-05-14T18:11:37.897Z,96.90
2023-05-14T18:14:05.935Z,97.10
2023-05-14T18:16:34.065Z,97.20
2023-05-14T18:19:03.531Z,97.10
2023-05-14T18:21:32.352Z,97.10
2023-05-14T18:24:00.412Z,97.10
2023-05-14T18:26:28.515Z,97.50
2023-05-14T18:28:56.608Z,97.70
2023-05-14T18:31:27.336Z,97.60
2023-05-14T18:33:55.394Z,97.60
2023-05-14T18:36:24.742Z,97.70
2023-05-14T18:38:52.753Z,97.80
2023-05-14T18:41:21.432Z,97.90
2023-05-14T18:43:49.867Z,98.00
2023-05-14T18:46:18.120Z,98.40
2023-05-14T18:48:46.198Z,98.20
2023-05-14T18:51:14.469Z,98.30
2023-05-14T18:53:43.871Z,98.40
2023-05-14T18:56:12.065Z,98.40
2023-05-14T18:58:40.176Z,98.50
2023-05-14T19:01:08.663Z,98.70
2023-05-14T19:03:36.802Z,98.80
2023-05-14T19:06:05.147Z,98.90
2023-05-14T19:08:33.249Z,99.00
2023-05-14T19:11:02.906Z,99.10
2023-05-14T19:13:30.991Z,99.20
2023-05-14T19:15:59.140Z,99.30
2023-05-14T19:18:27.500Z,99.30
2023-05-14T19:20:56.783Z,99.40
2023-05-14T19:23:24.951Z,99.70
2023-05-14T19:25:53.059Z,99.40
2023-05-14T19:28:22.410Z,99.30
2023-05-14T19:30:51.127Z,99.20
2023-05-14T19:33:19.162Z,99.10
2023-05-14T19:35:47.606Z,99.10
2023-05-14T19:38:15.818Z,99.10
2023-05-14T19:40:45.024Z,99.20
2023-05-14T19:43:13.632Z,99.20
2023-05-14T19:45:43.216Z,99.30
2023-05-14T19:48:12.461Z,99.40
2023-05-14T19:50:41.538Z,99.50
2023-05-14T19:53:09.770Z,99.60
2023-05-14T19:55:37.827Z,99.70
2023-05-14T19:58:06.149Z,99.70
2023-05-14T20:00:34.173Z,99.80
2023-05-14T20:03:03.752Z,99.90
2023-05-14T20:05:31.907Z,99.90
2023-05-14T20:07:59.921Z,99.90
2023-05-14T20:10:28.197Z,99.90
2023-05-14T20:12:56.481Z,99.90
2023-05-14T20:15:24.560Z,99.90
2023-05-14T20:17:53.153Z,99.90
2023-05-14T20:20:23.843Z,99.90
2023-05-14T20:22:52.072Z,99.90
2023-05-14T20:25:20.167Z,99.90
2023-05-14T20:27:48.443Z,99.90
2023-05-14T20:30:16.806Z,99.90
2023-05-14T20:32:44.919Z,99.90
2023-05-14T20:35:12.958Z,99.90
2023-05-14T20:37:42.351Z,99.90
2023-05-14T20:40:12.620Z,99.90
2023-05-14T20:42:40.867Z,99.90
2023-05-14T20:45:10.072Z,99.90
2023-05-14T20:47:38.192Z,99.90
2023-05-14T20:50:07.229Z,99.90
2023-05-14T20:52:35.357Z,99.90
2023-05-14T20:55:05.143Z,99.90
2023-05-14T20:57:33.176Z,99.90
2023-05-14T21:00:01.443Z,99.90
2023-05-14T21:02:29.648Z,99.90
2023-05-14T21:04:58.030Z,99.90
2023-05-14T21:07:28.305Z,99.90
2023-05-14T21:09:56.920Z,99.90
2023-05-14T21:12:41.229Z,99.90
2023-05-14T21:15:11.528Z,99.90
2023-05-14T21:17:39.680Z,99.90
2023-05-14T21:20:08.880Z,99.90
2023-05-14T21:22:36.941Z,99.90
2023-05-14T21:25:05.543Z,99.90
2023-05-14T21:27:35.065Z,99.90
2023-05-14T21:30:03.106Z,99.90
2023-05-14T21:32:31.232Z,99.90
2023-05-14T21:34:59.356Z,99.90
2023-05-14T21:37:27.458Z,99.90
2023-05-14T21:39:55.512Z,99.90
2023-05-14T21:42:23.557Z,99.90
2023-05-14T21:44:52.973Z,99.90
2023-05-14T21:47:21.088Z,99.90
2023-05-14T21:49:49.116Z,99.90
2023-05-14T21:52:17.138Z,99.90
2023-05-14T21:54:45.220Z,99.90
2023-05-14T21:57:13.258Z,99.90
2023-05-14T21:59:41.265Z,99.90
2023-05-14T22:02:10.686Z,99.90
2023-05-14T22:04:38.767Z,99.90
2023-05-14T22:07:06.916Z,99.90
2023-05-14T22:09:34.967Z,99.90
2023-05-14T22:12:03.065Z,99.90
2023-05-14T22:14:31.165Z,99.90
2023-05-14T22:16:59.212Z,99.90
2023-05-14T22:19:28.930Z,99.90
2023-05-14T22:21:57.006Z,99.90
2023-05-14T22:24:25.081Z,99.90
2023-05-14T22:26:53.208Z,99.90
2023-05-14T22:29:21.232Z,99.90
2023-05-14T22:31:49.317Z,99.90
2023-05-14T22:34:17.449Z,99.90
2023-05-14T22:36:47.169Z,99.90
2023-05-14T22:39:15.248Z,99.90
2023-05-14T22:41:43.346Z,99.90
2023-05-14T22:44:11.434Z,99.90
2023-05-14T22:46:39.554Z,99.90
2023-05-14T22:49:07.617Z,99.90
2023-05-14T22:51:35.723Z,99.90
2023-05-14T22:54:05.245Z,99.90
2023-05-14T22:56:33.497Z,99.90
2023-05-14T22:59:01.743Z,99.90
2023-05-14T23:01:30.598Z,99.90
2023-05-14T23:03:58.696Z,99.90
2023-05-14T23:06:26.911Z,99.90
2023-05-14T23:08:55.029Z,99.90
2023-05-14T23:11:25.014Z,99.90
2023-05-14T23:13:53.085Z,99.90
2023-05-14T23:16:21.517Z,99.90
2023-05-14T23:18:49.674Z,99.90
2023-05-14T23:21:17.851Z,99.90
2023-05-14T23:23:46.729Z,99.90
2023-05-14T23:26:14.738Z,99.90
2023-05-14T23:28:44.263Z,99.90
2023-05-14T23:31:12.378Z,99.90
2023-05-14T23:33:40.742Z,99.90
2023-05-14T23:36:09.733Z,99.90
2023-05-14T23:38:37.981Z,99.90
2023-05-14T23:41:06.134Z,99.90
2023-05-14T23:43:34.198Z,99.90
2023-05-14T23:46:04.039Z,99.90
2023-05-14T23:48:32.382Z,99.90
2023-05-14T23:51:01.249Z,99.90
2023-05-14T23:53:30.029Z,99.90
2023-05-14T23:55:58.202Z,99.90
2023-05-14T23:58:26.662Z,99.90
